QA-0001 weather

Tamim Airbase
Dukhan, Qatar

Public forecast

Using degrees Celsius for public forecast. Weather courtesy of forecast.io.

Closest aviation weather report (METAR) to Tamim Airbase

Closest report is Doha International Airport, 33.1 nm (61.3 km) ESE. Retrieved 2020/06/06 13:30 UTC (14 minutes ago):

OTBD 061330Z AUTO 34019KT CAVOK 42/15 Q0999 NOSIG

Closest aviation forecast (TAF) to Tamim Airbase

Closest forecast is Al Udeid Air Base, 27.1 nm (50.2 km) SE. Retrieved 2020/06/06 08:42 UTC (5 hours ago):

TAF TAF OTBH 060730Z 0608/0714 33020G30KT 8000 HZ SKC 520003 QNH2954INS TEMPO 0608/0614 34027G40KT 6000 BLDU BECMG 0615/0616 33016KT 9999 NSW SKC WS010/35040KT QNH2951INS BECMG 0703/0704 33018G28KT 9999 SKC 520003 QNH2957INS TEMPO 0706/0714 34028G38KT 6000 BLDU TX45/0612Z TN30/0702Z